Terminal Aerodrome Forecast
Issued by NWS

Home | Current Version | Previous Version | Graphics & Text | Print | Product List | Glossary On
Versions: 1 2 3 4 5 6 7 8 9 10 11 12 13
880
FTUS43 KBIS 240353 AAA
TAFMOT
TAF AMD
KMOT 240353Z 2404/2424 28011KT P6SM FEW040
     FM241500 29013G22KT P6SM FEW050=

USA.gov is the U.S. government's official web portal to all federal, state and local government web resources and services.